sensor_id;sensor_type;location;lat;lon;timestamp;temperature;humidity
44121;DHT22;29783;52.504;13.478;2023-04-24T01:30:13;10.50;90.90
44121;DHT22;29783;52.504;13.478;2023-04-24T01:32:40;10.60;90.90
44121;DHT22;29783;52.504;13.478;2023-04-24T01:35:10;10.60;90.70
44121;DHT22;29783;52.504;13.478;2023-04-24T01:37:36;10.60;90.60
44121;DHT22;29783;52.504;13.478;2023-04-24T01:40:21;10.50;90.50
44121;DHT22;29783;52.504;13.478;2023-04-24T01:42:49;10.50;90.60
44121;DHT22;29783;52.504;13.478;2023-04-24T01:45:16;10.50;90.80
44121;DHT22;29783;52.504;13.478;2023-04-24T01:47:42;10.40;90.80
44121;DHT22;29783;52.504;13.478;2023-04-24T01:50:09;10.50;91.00
44121;DHT22;29783;52.504;13.478;2023-04-24T01:52:35;10.50;91.00
44121;DHT22;29783;52.504;13.478;2023-04-24T01:55:03;10.50;91.20
44121;DHT22;29783;52.504;13.478;2023-04-24T01:57:30;10.50;91.00
44121;DHT22;29783;52.504;13.478;2023-04-24T01:59:56;10.50;91.10
44121;DHT22;29783;52.504;13.478;2023-04-24T02:02:23;10.40;91.20
44121;DHT22;29783;52.504;13.478;2023-04-24T02:04:56;10.40;91.50
44121;DHT22;29783;52.504;13.478;2023-04-24T02:07:22;10.40;91.50
44121;DHT22;29783;52.504;13.478;2023-04-24T02:09:49;10.40;91.70
44121;DHT22;29783;52.504;13.478;2023-04-24T02:12:15;10.40;91.70
44121;DHT22;29783;52.504;13.478;2023-04-24T02:14:43;10.40;91.90
44121;DHT22;29783;52.504;13.478;2023-04-24T02:17:09;10.40;91.70
44121;DHT22;29783;52.504;13.478;2023-04-24T02:19:35;10.40;91.60
44121;DHT22;29783;52.504;13.478;2023-04-24T02:22:00;10.40;91.70
44121;DHT22;29783;52.504;13.478;2023-04-24T02:24:26;10.40;91.80
44121;DHT22;29783;52.504;13.478;2023-04-24T02:26:52;10.50;91.90
44121;DHT22;29783;52.504;13.478;2023-04-24T02:29:18;10.50;91.90
44121;DHT22;29783;52.504;13.478;2023-04-24T02:31:44;10.40;91.90
44121;DHT22;29783;52.504;13.478;2023-04-24T02:34:09;10.40;92.00
44121;DHT22;29783;52.504;13.478;2023-04-24T02:36:35;10.40;92.10
44121;DHT22;29783;52.504;13.478;2023-04-24T02:39:01;10.40;92.20
44121;DHT22;29783;52.504;13.478;2023-04-24T02:41:29;10.50;92.20
44121;DHT22;29783;52.504;13.478;2023-04-24T03:12:27;11.00;91.80
44121;DHT22;29783;52.504;13.478;2023-04-24T03:14:54;11.00;91.80
44121;DHT22;29783;52.504;13.478;2023-04-24T03:17:22;11.00;91.80
44121;DHT22;29783;52.504;13.478;2023-04-24T03:19:49;11.10;91.60
44121;DHT22;29783;52.504;13.478;2023-04-24T03:22:15;11.20;91.50
44121;DHT22;29783;52.504;13.478;2023-04-24T03:24:41;11.20;91.40
44121;DHT22;29783;52.504;13.478;2023-04-24T03:27:06;11.20;91.30
44121;DHT22;29783;52.504;13.478;2023-04-24T03:29:33;11.30;91.20
44121;DHT22;29783;52.504;13.478;2023-04-24T03:31:59;11.30;91.10
44121;DHT22;29783;52.504;13.478;2023-04-24T03:34:25;11.30;91.00
44121;DHT22;29783;52.504;13.478;2023-04-24T03:36:51;11.40;90.80
44121;DHT22;29783;52.504;13.478;2023-04-24T03:39:18;11.40;90.60
44121;DHT22;29783;52.504;13.478;2023-04-24T03:41:43;11.50;90.40
44121;DHT22;29783;52.504;13.478;2023-04-24T04:07:28;11.70;89.40
44121;DHT22;29783;52.504;13.478;2023-04-24T04:09:55;11.70;89.40
44121;DHT22;29783;52.504;13.478;2023-04-24T04:12:21;11.70;89.30
44121;DHT22;29783;52.504;13.478;2023-04-24T04:14:46;11.80;89.30
44121;DHT22;29783;52.504;13.478;2023-04-24T04:17:12;11.80;89.20
44121;DHT22;29783;52.504;13.478;2023-04-24T04:19:38;11.80;89.10
44121;DHT22;29783;52.504;13.478;2023-04-24T04:22:04;11.80;89.00
44121;DHT22;29783;52.504;13.478;2023-04-24T04:24:29;11.80;89.00
44121;DHT22;29783;52.504;13.478;2023-04-24T04:26:55;11.80;88.90
44121;DHT22;29783;52.504;13.478;2023-04-24T04:29:23;11.90;88.90
44121;DHT22;29783;52.504;13.478;2023-04-24T04:31:51;11.90;88.90
44121;DHT22;29783;52.504;13.478;2023-04-24T04:34:18;11.80;88.90
44121;DHT22;29783;52.504;13.478;2023-04-24T04:36:44;11.90;88.90
44121;DHT22;29783;52.504;13.478;2023-04-24T04:39:11;11.90;88.90
44121;DHT22;29783;52.504;13.478;2023-04-24T04:41:40;11.90;88.80
44121;DHT22;29783;52.504;13.478;2023-04-24T04:44:08;11.90;88.80
44121;DHT22;29783;52.504;13.478;2023-04-24T04:46:36;12.00;88.70
44121;DHT22;29783;52.504;13.478;2023-04-24T04:49:02;12.00;88.60
44121;DHT22;29783;52.504;13.478;2023-04-24T04:51:28;12.10;88.20
44121;DHT22;29783;52.504;13.478;2023-04-24T04:53:55;12.20;87.80
44121;DHT22;29783;52.504;13.478;2023-04-24T04:56:21;12.20;87.50
44121;DHT22;29783;52.504;13.478;2023-04-24T04:58:47;12.30;87.40
44121;DHT22;29783;52.504;13.478;2023-04-24T05:01:13;12.40;87.10
44121;DHT22;29783;52.504;13.478;2023-04-24T05:03:39;12.50;86.60
44121;DHT22;29783;52.504;13.478;2023-04-24T05:06:05;12.50;86.20
44121;DHT22;29783;52.504;13.478;2023-04-24T05:08:31;12.60;86.10
44121;DHT22;29783;52.504;13.478;2023-04-24T05:10:57;12.50;86.10
44121;DHT22;29783;52.504;13.478;2023-04-24T05:13:22;12.50;86.00
44121;DHT22;29783;52.504;13.478;2023-04-24T05:15:48;12.40;86.30
44121;DHT22;29783;52.504;13.478;2023-04-24T05:18:14;12.50;86.30
44121;DHT22;29783;52.504;13.478;2023-04-24T05:20:40;12.50;86.10
44121;DHT22;29783;52.504;13.478;2023-04-24T05:23:08;12.40;86.10
44121;DHT22;29783;52.504;13.478;2023-04-24T05:25:34;12.40;86.00
44121;DHT22;29783;52.504;13.478;2023-04-24T05:28:01;12.40;86.00
44121;DHT22;29783;52.504;13.478;2023-04-24T05:30:27;12.50;86.10
44121;DHT22;29783;52.504;13.478;2023-04-24T05:32:54;12.60;85.60
44121;DHT22;29783;52.504;13.478;2023-04-24T05:35:19;12.50;85.60
44121;DHT22;29783;52.504;13.478;2023-04-24T05:37:45;12.70;85.20
44121;DHT22;29783;52.504;13.478;2023-04-24T05:40:11;12.70;84.80
44121;DHT22;29783;52.504;13.478;2023-04-24T05:42:37;12.70;84.50
44121;DHT22;29783;52.504;13.478;2023-04-24T06:14:15;13.30;81.30
44121;DHT22;29783;52.504;13.478;2023-04-24T06:16:43;13.30;80.70
44121;DHT22;29783;52.504;13.478;2023-04-24T06:19:09;13.40;80.70
44121;DHT22;29783;52.504;13.478;2023-04-24T06:21:35;13.50;80.30
44121;DHT22;29783;52.504;13.478;2023-04-24T06:24:00;13.60;79.70
44121;DHT22;29783;52.504;13.478;2023-04-24T06:26:26;13.70;78.60
44121;DHT22;29783;52.504;13.478;2023-04-24T06:28:52;13.70;78.80
44121;DHT22;29783;52.504;13.478;2023-04-24T06:31:20;13.80;78.40
44121;DHT22;29783;52.504;13.478;2023-04-24T06:33:48;13.70;78.00
44121;DHT22;29783;52.504;13.478;2023-04-24T06:36:14;13.80;78.10
44121;DHT22;29783;52.504;13.478;2023-04-24T06:38:41;13.80;77.80
44121;DHT22;29783;52.504;13.478;2023-04-24T06:41:06;13.80;77.40
44121;DHT22;29783;52.504;13.478;2023-04-24T06:43:32;13.90;76.90
44121;DHT22;29783;52.504;13.478;2023-04-24T06:51:09;14.40;74.90
44121;DHT22;29783;52.504;13.478;2023-04-24T06:53:35;14.50;74.50
44121;DHT22;29783;52.504;13.478;2023-04-24T06:56:01;14.60;74.60
44121;DHT22;29783;52.504;13.478;2023-04-24T06:58:26;14.80;73.50
44121;DHT22;29783;52.504;13.478;2023-04-24T07:00:52;15.00;72.40
44121;DHT22;29783;52.504;13.478;2023-04-24T07:03:18;15.10;72.00
44121;DHT22;29783;52.504;13.478;2023-04-24T07:05:43;15.30;71.80
44121;DHT22;29783;52.504;13.478;2023-04-24T07:08:09;15.40;70.80
44121;DHT22;29783;52.504;13.478;2023-04-24T07:10:36;15.50;69.60
44121;DHT22;29783;52.504;13.478;2023-04-24T07:13:02;15.30;69.50
44121;DHT22;29783;52.504;13.478;2023-04-24T07:15:29;15.30;70.50
44121;DHT22;29783;52.504;13.478;2023-04-24T07:17:57;15.30;69.60
44121;DHT22;29783;52.504;13.478;2023-04-24T07:20:26;15.40;68.10
44121;DHT22;29783;52.504;13.478;2023-04-24T07:22:52;15.30;68.30
44121;DHT22;29783;52.504;13.478;2023-04-24T07:25:19;15.30;68.00
44121;DHT22;29783;52.504;13.478;2023-04-24T07:27:45;15.40;67.80
44121;DHT22;29783;52.504;13.478;2023-04-24T07:30:11;15.60;67.20
44121;DHT22;29783;52.504;13.478;2023-04-24T07:32:37;15.80;66.10
44121;DHT22;29783;52.504;13.478;2023-04-24T07:35:02;15.80;65.80
44121;DHT22;29783;52.504;13.478;2023-04-24T07:37:28;16.00;65.50
44121;DHT22;29783;52.504;13.478;2023-04-24T07:39:54;16.10;64.00
44121;DHT22;29783;52.504;13.478;2023-04-24T07:42:21;16.10;64.60
44121;DHT22;29783;52.504;13.478;2023-04-24T07:44:48;16.20;65.00
44121;DHT22;29783;52.504;13.478;2023-04-24T07:47:14;16.10;62.30
44121;DHT22;29783;52.504;13.478;2023-04-24T07:49:42;15.90;63.10
44121;DHT22;29783;52.504;13.478;2023-04-24T07:52:08;15.80;62.70
44121;DHT22;29783;52.504;13.478;2023-04-24T07:54:35;16.00;63.50
44121;DHT22;29783;52.504;13.478;2023-04-24T07:57:02;16.20;61.50
44121;DHT22;29783;52.504;13.478;2023-04-24T07:59:28;16.20;60.30
44121;DHT22;29783;52.504;13.478;2023-04-24T08:01:53;16.40;60.80
44121;DHT22;29783;52.504;13.478;2023-04-24T08:04:19;16.30;58.60
44121;DHT22;29783;52.504;13.478;2023-04-24T08:06:47;16.60;58.90
44121;DHT22;29783;52.504;13.478;2023-04-24T08:09:13;16.70;58.80
44121;DHT22;29783;52.504;13.478;2023-04-24T08:11:38;16.80;57.50
44121;DHT22;29783;52.504;13.478;2023-04-24T08:14:05;16.80;57.60
44121;DHT22;29783;52.504;13.478;2023-04-24T08:16:32;17.00;56.00
44121;DHT22;29783;52.504;13.478;2023-04-24T08:18:59;16.80;57.30
44121;DHT22;29783;52.504;13.478;2023-04-24T08:21:27;17.00;57.80
44121;DHT22;29783;52.504;13.478;2023-04-24T08:23:52;17.00;58.70
44121;DHT22;29783;52.504;13.478;2023-04-24T08:26:18;17.20;58.90
44121;DHT22;29783;52.504;13.478;2023-04-24T08:28:44;17.20;60.00
44121;DHT22;29783;52.504;13.478;2023-04-24T08:31:09;17.20;60.30
44121;DHT22;29783;52.504;13.478;2023-04-24T08:33:35;17.40;59.40
44121;DHT22;29783;52.504;13.478;2023-04-24T08:36:05;17.90;57.80
44121;DHT22;29783;52.504;13.478;2023-04-24T08:38:31;18.20;56.60
44121;DHT22;29783;52.504;13.478;2023-04-24T08:40:58;18.20;56.50
44121;DHT22;29783;52.504;13.478;2023-04-24T08:43:25;17.90;57.20
44121;DHT22;29783;52.504;13.478;2023-04-24T08:45:52;17.90;58.00
44121;DHT22;29783;52.504;13.478;2023-04-24T08:48:18;18.20;56.20
44121;DHT22;29783;52.504;13.478;2023-04-24T08:50:49;18.30;54.90
44121;DHT22;29783;52.504;13.478;2023-04-24T08:53:18;18.70;54.60
44121;DHT22;29783;52.504;13.478;2023-04-24T08:55:47;18.70;53.30
44121;DHT22;29783;52.504;13.478;2023-04-24T08:58:14;19.00;52.70
44121;DHT22;29783;52.504;13.478;2023-04-24T09:00:40;18.90;52.60
44121;DHT22;29783;52.504;13.478;2023-04-24T09:03:15;18.90;51.50
44121;DHT22;29783;52.504;13.478;2023-04-24T09:05:43;18.90;51.00
44121;DHT22;29783;52.504;13.478;2023-04-24T09:08:11;18.60;51.30
44121;DHT22;29783;52.504;13.478;2023-04-24T09:10:40;18.20;52.10
44121;DHT22;29783;52.504;13.478;2023-04-24T09:13:05;18.60;51.70
44121;DHT22;29783;52.504;13.478;2023-04-24T09:15:34;18.80;51.80
44121;DHT22;29783;52.504;13.478;2023-04-24T09:18:00;18.60;52.00
44121;DHT22;29783;52.504;13.478;2023-04-24T09:20:28;18.90;51.10
44121;DHT22;29783;52.504;13.478;2023-04-24T09:22:54;18.90;51.30
44121;DHT22;29783;52.504;13.478;2023-04-24T09:25:25;18.70;52.00
44121;DHT22;29783;52.504;13.478;2023-04-24T09:27:58;18.50;52.40
44121;DHT22;29783;52.504;13.478;2023-04-24T09:30:25;18.70;52.40
44121;DHT22;29783;52.504;13.478;2023-04-24T09:33:10;18.70;52.60
44121;DHT22;29783;52.504;13.478;2023-04-24T09:35:40;18.80;52.20
44121;DHT22;29783;52.504;13.478;2023-04-24T09:38:06;18.70;52.60
44121;DHT22;29783;52.504;13.478;2023-04-24T09:40:34;18.60;53.50
44121;DHT22;29783;52.504;13.478;2023-04-24T09:43:00;18.40;55.00
44121;DHT22;29783;52.504;13.478;2023-04-24T09:45:29;18.20;55.20
44121;DHT22;29783;52.504;13.478;2023-04-24T09:48:00;18.00;55.50
44121;DHT22;29783;52.504;13.478;2023-04-24T09:50:26;18.20;55.10
44121;DHT22;29783;52.504;13.478;2023-04-24T09:53:05;18.30;55.10
44121;DHT22;29783;52.504;13.478;2023-04-24T09:55:31;18.30;55.20
44121;DHT22;29783;52.504;13.478;2023-04-24T09:57:58;18.20;55.60
44121;DHT22;29783;52.504;13.478;2023-04-24T10:00:32;18.30;55.90
44121;DHT22;29783;52.504;13.478;2023-04-24T10:03:04;18.20;56.10
44121;DHT22;29783;52.504;13.478;2023-04-24T10:05:33;18.20;56.00
44121;DHT22;29783;52.504;13.478;2023-04-24T10:08:10;18.50;56.00
44121;DHT22;29783;52.504;13.478;2023-04-24T10:13:07;18.90;52.70
44121;DHT22;29783;52.504;13.478;2023-04-24T10:15:34;18.90;52.60
44121;DHT22;29783;52.504;13.478;2023-04-24T10:18:00;18.90;52.40
44121;DHT22;29783;52.504;13.478;2023-04-24T10:20:28;18.80;53.40
44121;DHT22;29783;52.504;13.478;2023-04-24T10:22:58;18.90;53.30
44121;DHT22;29783;52.504;13.478;2023-04-24T10:25:27;19.10;52.30
44121;DHT22;29783;52.504;13.478;2023-04-24T10:27:53;19.20;52.60
44121;DHT22;29783;52.504;13.478;2023-04-24T10:30:23;19.20;51.70
44121;DHT22;29783;52.504;13.478;2023-04-24T10:32:49;19.10;53.00
44121;DHT22;29783;52.504;13.478;2023-04-24T10:35:15;19.10;54.10
44121;DHT22;29783;52.504;13.478;2023-04-24T10:37:51;19.00;52.40
44121;DHT22;29783;52.504;13.478;2023-04-24T10:40:19;18.90;52.80
44121;DHT22;29783;52.504;13.478;2023-04-24T10:42:52;18.70;52.40
44121;DHT22;29783;52.504;13.478;2023-04-24T10:45:22;18.40;54.10
44121;DHT22;29783;52.504;13.478;2023-04-24T10:47:58;18.20;54.10
44121;DHT22;29783;52.504;13.478;2023-04-24T10:50:29;17.90;54.40
44121;DHT22;29783;52.504;13.478;2023-04-24T10:53:06;18.00;53.90
44121;DHT22;29783;52.504;13.478;2023-04-24T10:55:47;17.90;54.60
44121;DHT22;29783;52.504;13.478;2023-04-24T10:58:13;18.00;54.50
44121;DHT22;29783;52.504;13.478;2023-04-24T11:00:41;18.10;54.50
44121;DHT22;29783;52.504;13.478;2023-04-24T11:03:36;18.30;53.80
44121;DHT22;29783;52.504;13.478;2023-04-24T11:06:03;18.30;53.50
44121;DHT22;29783;52.504;13.478;2023-04-24T11:08:43;18.30;53.90
44121;DHT22;29783;52.504;13.478;2023-04-24T11:11:13;18.60;53.60
44121;DHT22;29783;52.504;13.478;2023-04-24T11:16:30;18.80;53.10
44121;DHT22;29783;52.504;13.478;2023-04-24T11:19:17;19.20;53.00
44121;DHT22;29783;52.504;13.478;2023-04-24T11:24:32;20.00;51.00
44121;DHT22;29783;52.504;13.478;2023-04-24T11:35:00;18.40;53.80
44121;DHT22;29783;52.504;13.478;2023-04-24T11:37:29;18.10;54.70
44121;DHT22;29783;52.504;13.478;2023-04-24T11:39:57;17.90;55.70
44121;DHT22;29783;52.504;13.478;2023-04-24T11:42:24;17.20;64.70
44121;DHT22;29783;52.504;13.478;2023-04-24T11:47:30;15.10;77.90
44121;DHT22;29783;52.504;13.478;2023-04-24T11:49:56;14.80;76.80
44121;DHT22;29783;52.504;13.478;2023-04-24T11:52:22;14.70;76.40
44121;DHT22;29783;52.504;13.478;2023-04-24T11:54:51;15.00;77.00
44121;DHT22;29783;52.504;13.478;2023-04-24T11:57:25;15.60;77.20
44121;DHT22;29783;52.504;13.478;2023-04-24T11:59:59;16.00;78.90
44121;DHT22;29783;52.504;13.478;2023-04-24T12:02:26;16.30;76.60
44121;DHT22;29783;52.504;13.478;2023-04-24T12:04:55;16.20;75.00
44121;DHT22;29783;52.504;13.478;2023-04-24T12:07:22;16.40;75.20
44121;DHT22;29783;52.504;13.478;2023-04-24T12:09:55;16.80;73.20
44121;DHT22;29783;52.504;13.478;2023-04-24T12:12:25;16.90;71.90
44121;DHT22;29783;52.504;13.478;2023-04-24T12:14:56;17.40;71.40
44121;DHT22;29783;52.504;13.478;2023-04-24T12:17:30;18.30;67.30
44121;DHT22;29783;52.504;13.478;2023-04-24T12:20:05;19.90;60.20
44121;DHT22;29783;52.504;13.478;2023-04-24T12:22:51;21.00;55.30
44121;DHT22;29783;52.504;13.478;2023-04-24T12:25:23;21.80;52.00
44121;DHT22;29783;52.504;13.478;2023-04-24T12:28:09;22.00;51.00
44121;DHT22;29783;52.504;13.478;2023-04-24T12:30:44;22.20;49.60
44121;DHT22;29783;52.504;13.478;2023-04-24T12:33:20;22.50;49.10
44121;DHT22;29783;52.504;13.478;2023-04-24T12:35:51;22.60;48.00
44121;DHT22;29783;52.504;13.478;2023-04-24T12:38:22;23.40;44.80
44121;DHT22;29783;52.504;13.478;2023-04-24T12:41:00;24.20;41.20
44121;DHT22;29783;52.504;13.478;2023-04-24T12:43:26;22.80;43.80
44121;DHT22;29783;52.504;13.478;2023-04-24T12:45:51;21.40;46.20
44121;DHT22;29783;52.504;13.478;2023-04-24T12:48:17;20.80;45.60
44121;DHT22;29783;52.504;13.478;2023-04-24T12:50:43;20.70;47.00
44121;DHT22;29783;52.504;13.478;2023-04-24T12:53:09;20.10;45.60
44121;DHT22;29783;52.504;13.478;2023-04-24T12:55:36;20.20;44.50
44121;DHT22;29783;52.504;13.478;2023-04-24T12:58:02;20.30;41.80
44121;DHT22;29783;52.504;13.478;2023-04-24T13:00:28;20.30;42.00
44121;DHT22;29783;52.504;13.478;2023-04-24T13:02:54;20.80;40.90
44121;DHT22;29783;52.504;13.478;2023-04-24T13:05:20;20.80;38.80
44121;DHT22;29783;52.504;13.478;2023-04-24T13:07:45;21.10;37.30
44121;DHT22;29783;52.504;13.478;2023-04-24T13:10:11;21.80;36.80
44121;DHT22;29783;52.504;13.478;2023-04-24T13:12:38;22.20;35.30
44121;DHT22;29783;52.504;13.478;2023-04-24T13:15:04;22.60;34.40
44121;DHT22;29783;52.504;13.478;2023-04-24T13:17:30;21.60;36.00
44121;DHT22;29783;52.504;13.478;2023-04-24T13:19:56;20.90;36.40
44121;DHT22;29783;52.504;13.478;2023-04-24T13:22:21;20.60;36.50
44121;DHT22;29783;52.504;13.478;2023-04-24T13:24:47;21.80;35.00
44121;DHT22;29783;52.504;13.478;2023-04-24T13:27:16;23.70;33.00
44121;DHT22;29783;52.504;13.478;2023-04-24T13:29:42;24.40;30.50
44121;DHT22;29783;52.504;13.478;2023-04-24T13:32:08;25.30;28.80
44121;DHT22;29783;52.504;13.478;2023-04-24T13:34:34;25.50;28.50
44121;DHT22;29783;52.504;13.478;2023-04-24T13:37:00;25.70;28.90
44121;DHT22;29783;52.504;13.478;2023-04-24T13:39:26;24.60;29.40
44121;DHT22;29783;52.504;13.478;2023-04-24T13:41:52;24.60;30.50
44121;DHT22;29783;52.504;13.478;2023-04-24T13:44:20;24.00;29.90
44121;DHT22;29783;52.504;13.478;2023-04-24T13:46:47;24.20;29.20
44121;DHT22;29783;52.504;13.478;2023-04-24T13:49:13;23.40;29.30
44121;DHT22;29783;52.504;13.478;2023-04-24T13:51:40;24.10;28.60
44121;DHT22;29783;52.504;13.478;2023-04-24T13:54:06;25.20;27.70
44121;DHT22;29783;52.504;13.478;2023-04-24T13:56:32;25.90;27.00
44121;DHT22;29783;52.504;13.478;2023-04-24T13:58:57;25.90;26.10
44121;DHT22;29783;52.504;13.478;2023-04-24T14:01:24;25.00;28.30
44121;DHT22;29783;52.504;13.478;2023-04-24T14:03:51;24.30;30.10
44121;DHT22;29783;52.504;13.478;2023-04-24T14:06:18;24.30;29.80
44121;DHT22;29783;52.504;13.478;2023-04-24T14:08:43;25.50;27.40
44121;DHT22;29783;52.504;13.478;2023-04-24T14:11:09;25.70;27.90
44121;DHT22;29783;52.504;13.478;2023-04-24T14:13:36;25.20;28.70
44121;DHT22;29783;52.504;13.478;2023-04-24T14:16:03;25.10;28.90
44121;DHT22;29783;52.504;13.478;2023-04-24T14:18:29;25.20;28.60
44121;DHT22;29783;52.504;13.478;2023-04-24T14:20:55;25.20;29.20
44121;DHT22;29783;52.504;13.478;2023-04-24T14:23:20;25.20;29.90
44121;DHT22;29783;52.504;13.478;2023-04-24T14:25:46;24.10;30.60
44121;DHT22;29783;52.504;13.478;2023-04-24T14:28:16;23.50;31.60
44121;DHT22;29783;52.504;13.478;2023-04-24T14:30:42;22.40;31.50
44121;DHT22;29783;52.504;13.478;2023-04-24T14:33:07;21.20;33.20
44121;DHT22;29783;52.504;13.478;2023-04-24T14:35:33;20.50;34.50
44121;DHT22;29783;52.504;13.478;2023-04-24T14:38:00;20.20;35.60
44121;DHT22;29783;52.504;13.478;2023-04-24T14:40:26;21.00;34.10
44121;DHT22;29783;52.504;13.478;2023-04-24T14:42:51;22.50;31.50
44121;DHT22;29783;52.504;13.478;2023-04-24T14:45:18;23.10;30.20
44121;DHT22;29783;52.504;13.478;2023-04-24T14:47:44;22.90;30.90
44121;DHT22;29783;52.504;13.478;2023-04-24T14:50:10;21.70;31.10
44121;DHT22;29783;52.504;13.478;2023-04-24T14:52:37;20.40;34.40
44121;DHT22;29783;52.504;13.478;2023-04-24T14:55:04;20.30;35.10
44121;DHT22;29783;52.504;13.478;2023-04-24T14:57:29;21.20;34.50
44121;DHT22;29783;52.504;13.478;2023-04-24T14:59:55;22.90;31.80
44121;DHT22;29783;52.504;13.478;2023-04-24T15:02:21;22.90;31.70
44121;DHT22;29783;52.504;13.478;2023-04-24T15:04:46;23.00;31.20
44121;DHT22;29783;52.504;13.478;2023-04-24T15:07:12;23.60;30.80
44121;DHT22;29783;52.504;13.478;2023-04-24T15:09:37;22.50;32.40
44121;DHT22;29783;52.504;13.478;2023-04-24T15:12:03;21.30;34.10
44121;DHT22;29783;52.504;13.478;2023-04-24T15:14:29;20.60;35.50
44121;DHT22;29783;52.504;13.478;2023-04-24T15:16:55;19.80;36.50
44121;DHT22;29783;52.504;13.478;2023-04-24T15:19:20;19.20;37.80
44121;DHT22;29783;52.504;13.478;2023-04-24T15:21:46;19.10;38.30
44121;DHT22;29783;52.504;13.478;2023-04-24T15:24:12;18.70;38.70
44121;DHT22;29783;52.504;13.478;2023-04-24T15:26:37;18.70;39.60
44121;DHT22;29783;52.504;13.478;2023-04-24T15:29:03;18.80;39.60
44121;DHT22;29783;52.504;13.478;2023-04-24T15:31:30;19.70;36.80
44121;DHT22;29783;52.504;13.478;2023-04-24T15:33:55;21.20;34.50
44121;DHT22;29783;52.504;13.478;2023-04-24T15:36:21;20.60;35.00
44121;DHT22;29783;52.504;13.478;2023-04-24T15:38:47;20.20;35.30
44121;DHT22;29783;52.504;13.478;2023-04-24T15:41:13;19.60;36.60
44121;DHT22;29783;52.504;13.478;2023-04-24T15:43:38;19.20;37.50
44121;DHT22;29783;52.504;13.478;2023-04-24T16:06:35;17.70;41.30
44121;DHT22;29783;52.504;13.478;2023-04-24T16:09:01;17.40;41.70
44121;DHT22;29783;52.504;13.478;2023-04-24T16:11:26;17.20;42.10
44121;DHT22;29783;52.504;13.478;2023-04-24T16:13:52;17.10;42.70
44121;DHT22;29783;52.504;13.478;2023-04-24T16:16:18;16.90;43.10
44121;DHT22;29783;52.504;13.478;2023-04-24T16:18:43;16.70;44.00
44121;DHT22;29783;52.504;13.478;2023-04-24T16:21:09;16.50;44.20
44121;DHT22;29783;52.504;13.478;2023-04-24T16:23:35;16.30;44.90
44121;DHT22;29783;52.504;13.478;2023-04-24T16:26:00;16.30;45.20
44121;DHT22;29783;52.504;13.478;2023-04-24T16:28:26;16.20;45.10
44121;DHT22;29783;52.504;13.478;2023-04-24T16:30:52;16.20;45.40
44121;DHT22;29783;52.504;13.478;2023-04-24T16:33:17;16.10;45.70
44121;DHT22;29783;52.504;13.478;2023-04-24T16:35:43;16.10;45.90
44121;DHT22;29783;52.504;13.478;2023-04-24T16:38:11;16.10;46.30
44121;DHT22;29783;52.504;13.478;2023-04-24T16:40:36;16.00;46.40
44121;DHT22;29783;52.504;13.478;2023-04-24T16:43:02;16.00;46.30
44121;DHT22;29783;52.504;13.478;2023-04-24T16:45:28;15.90;46.80
44121;DHT22;29783;52.504;13.478;2023-04-24T16:47:53;15.90;47.00
44121;DHT22;29783;52.504;13.478;2023-04-24T16:50:19;15.90;46.90
44121;DHT22;29783;52.504;13.478;2023-04-24T16:52:45;15.80;47.10
44121;DHT22;29783;52.504;13.478;2023-04-24T16:55:10;15.90;47.40
44121;DHT22;29783;52.504;13.478;2023-04-24T16:57:36;16.00;47.50
44121;DHT22;29783;52.504;13.478;2023-04-24T17:00:02;16.00;48.60
44121;DHT22;29783;52.504;13.478;2023-04-24T17:02:33;15.60;50.30
44121;DHT22;29783;52.504;13.478;2023-04-24T17:04:58;15.30;51.30
44121;DHT22;29783;52.504;13.478;2023-04-24T17:07:24;15.20;51.90
44121;DHT22;29783;52.504;13.478;2023-04-24T17:09:50;14.90;52.90
44121;DHT22;29783;52.504;13.478;2023-04-24T17:12:15;14.70;53.90
44121;DHT22;29783;52.504;13.478;2023-04-24T17:14:41;14.70;53.90
44121;DHT22;29783;52.504;13.478;2023-04-24T17:17:06;14.60;54.60
44121;DHT22;29783;52.504;13.478;2023-04-24T17:19:33;14.30;56.30
44121;DHT22;29783;52.504;13.478;2023-04-24T17:21:59;14.10;57.90
44121;DHT22;29783;52.504;13.478;2023-04-24T17:24:25;14.00;58.90
44121;DHT22;29783;52.504;13.478;2023-04-24T17:26:51;13.90;59.70
44121;DHT22;29783;52.504;13.478;2023-04-24T17:29:16;13.90;60.40
44121;DHT22;29783;52.504;13.478;2023-04-24T17:31:42;13.80;61.40
44121;DHT22;29783;52.504;13.478;2023-04-24T17:34:08;13.80;61.90
44121;DHT22;29783;52.504;13.478;2023-04-24T17:36:36;13.70;62.50
44121;DHT22;29783;52.504;13.478;2023-04-24T17:39:04;13.50;63.30
44121;DHT22;29783;52.504;13.478;2023-04-24T17:41:31;13.50;63.50
44121;DHT22;29783;52.504;13.478;2023-04-24T17:43:57;13.40;61.50
44121;DHT22;29783;52.504;13.478;2023-04-24T17:46:22;13.30;62.00
44121;DHT22;29783;52.504;13.478;2023-04-24T17:48:48;13.10;61.80
44121;DHT22;29783;52.504;13.478;2023-04-24T17:51:14;13.10;62.00
44121;DHT22;29783;52.504;13.478;2023-04-24T17:53:40;13.00;62.30
44121;DHT22;29783;52.504;13.478;2023-04-24T17:56:06;13.00;62.80
44121;DHT22;29783;52.504;13.478;2023-04-24T17:58:32;12.90;62.70
44121;DHT22;29783;52.504;13.478;2023-04-24T18:00:59;12.90;62.80
44121;DHT22;29783;52.504;13.478;2023-04-24T18:03:25;12.70;63.40
44121;DHT22;29783;52.504;13.478;2023-04-24T18:05:50;12.70;63.80
44121;DHT22;29783;52.504;13.478;2023-04-24T18:08:16;12.70;64.00
44121;DHT22;29783;52.504;13.478;2023-04-24T18:10:41;12.60;64.10
44121;DHT22;29783;52.504;13.478;2023-04-24T18:13:08;12.50;64.00
44121;DHT22;29783;52.504;13.478;2023-04-24T18:15:34;12.40;63.90
44121;DHT22;29783;52.504;13.478;2023-04-24T18:18:00;12.40;63.80
44121;DHT22;29783;52.504;13.478;2023-04-24T18:20:26;12.40;64.00
44121;DHT22;29783;52.504;13.478;2023-04-24T18:22:51;12.40;64.30
44121;DHT22;29783;52.504;13.478;2023-04-24T18:25:18;12.30;64.20
44121;DHT22;29783;52.504;13.478;2023-04-24T18:27:50;12.30;64.20
44121;DHT22;29783;52.504;13.478;2023-04-24T18:30:16;12.30;63.80
44121;DHT22;29783;52.504;13.478;2023-04-24T18:32:42;12.30;63.60
44121;DHT22;29783;52.504;13.478;2023-04-24T18:35:08;12.20;63.90
44121;DHT22;29783;52.504;13.478;2023-04-24T18:37:34;12.10;63.60
44121;DHT22;29783;52.504;13.478;2023-04-24T18:40:00;12.10;63.90
44121;DHT22;29783;52.504;13.478;2023-04-24T18:42:26;12.10;64.00
44121;DHT22;29783;52.504;13.478;2023-04-24T18:44:51;12.00;64.30
44121;DHT22;29783;52.504;13.478;2023-04-24T18:47:17;11.80;64.90
44121;DHT22;29783;52.504;13.478;2023-04-24T18:49:43;11.70;64.90